Minneapolis, MN

2:44 PM CDT on July 29, 2016 (GMT -0500)
Ventura Village | | Change Station

Elev 846 ft 44.96 °N, 93.26 °W | Updated 54 minutes ago

Clear
Clear
80.1 °F
Feels Like 80 °F
N
1.7
Wind Variable Wind from NNW

Today
High -- | Low -- °F
--% Chance of Precip.
Yesterday
High -- | Low -- °F
Precip. -- in
Pressure 30.05 in
Visibility 10.0 miles
Clouds Clear
Heat Index 80 °F
Dew Point 54 °F
Humidity 40%
Rainfall 0.00 in
Snow Depth Not available.
5:55 AM 8:42 PM
Waning Crescent, 19% visible
METAR KMIC 291853Z 34007KT 10SM CLR 24/08 A3006 RMK AO2 SLP176 T02440083
Pressure 30.05 in
Visibility 10.0 miles
Clouds Clear
Heat Index 80 °F
Dew Point 54 °F
Humidity 40%
Rainfall 0.00 in
Snow Depth Not available.
5:55 AM 8:42 PM
Waning Crescent, 19% visible
METAR KMIC 291853Z 34007KT 10SM CLR 24/08 A3006 RMK AO2 SLP176 T02440083

10-Day Weather Forecast

Almanac

Astronomy

Jul. 29, 2016 Rise Set
Actual Time
Civil Twilight
Nautical Twilight
Astronomical Twilight
Moon
Length of Visible Light
Length of Day
Tomorrow will be .
, % of the Moon is Illuminated

Today's Extremes

State Highs State Lows

Community

WunderPhotos

Upload Photos

1,928,401 photos uploaded!

WunderBlog® & News

Nearby

Air Quality

  Air Quality AQ Index Pollutant
Not available.

Snow Depth

Station Depth Elevation

Earthquake Activity

City Distance Mag. Time & Date
Minimum magnitude displayed is 2.5.

Coastal Water Temperatures

Place Temperature

Stations

Nearby Weather Stations

Station Location Temp. Windchill Dew Point Humidity Wind Precip. Elev Updated Type
                   

Watches & Warnings

There are currently no watches in effect.